createdAt,value
2018-03-24T00:00:35.452Z,97889.48
2018-03-24T00:03:03.658Z,97881.33
2018-03-24T00:05:31.202Z,97896.00
2018-03-24T00:08:00.282Z,97880.17
2018-03-24T00:10:28.082Z,97877.00
2018-03-24T00:12:55.860Z,97871.75
2018-03-24T00:15:23.522Z,97868.88
2018-03-24T00:17:51.048Z,97876.33
2018-03-24T00:20:18.741Z,97872.36
2018-03-24T00:22:46.511Z,97873.84
2018-03-24T00:25:14.100Z,97868.41
2018-03-24T00:27:41.832Z,97864.27
2018-03-24T00:30:09.524Z,97869.27
2018-03-24T00:32:37.039Z,97867.30
2018-03-24T00:35:04.649Z,97864.47
2018-03-24T00:37:32.442Z,97863.48
2018-03-24T00:40:01.365Z,97861.31
2018-03-24T00:42:29.912Z,97854.82
2018-03-24T00:44:58.579Z,97855.81
2018-03-24T00:47:27.300Z,97857.46
2018-03-24T00:49:54.891Z,97862.20
2018-03-24T00:52:23.236Z,97865.63
2018-03-24T00:54:51.022Z,97871.66
2018-03-24T00:57:18.836Z,97861.80
2018-03-24T00:59:46.368Z,97868.17
2018-03-24T01:02:14.031Z,97868.31
2018-03-24T01:04:41.547Z,97872.05
2018-03-24T01:07:09.148Z,97866.08
2018-03-24T01:09:36.812Z,97871.16
2018-03-24T01:12:04.770Z,97863.27
2018-03-24T01:14:32.388Z,97866.58
2018-03-24T01:17:00.023Z,97864.50
2018-03-24T01:19:27.976Z,97866.10
2018-03-24T01:21:55.556Z,97866.77
2018-03-24T01:24:23.075Z,97858.72
2018-03-24T01:26:50.623Z,97857.90
2018-03-24T01:29:18.135Z,97856.50
2018-03-24T01:31:45.680Z,97856.58
2018-03-24T01:34:13.204Z,97859.72
2018-03-24T01:36:40.771Z,97855.18
2018-03-24T01:39:08.288Z,97852.56
2018-03-24T01:41:35.844Z,97848.59
2018-03-24T01:44:03.372Z,97848.22
2018-03-24T01:46:30.919Z,97848.28
2018-03-24T01:48:58.444Z,97847.06
2018-03-24T01:51:25.994Z,97843.20
2018-03-24T01:53:53.534Z,97842.56
2018-03-24T01:56:21.106Z,97838.64
2018-03-24T01:58:48.625Z,97836.64
2018-03-24T02:01:16.173Z,97839.62
2018-03-24T02:03:44.524Z,97836.65
2018-03-24T02:06:12.066Z,97829.77
2018-03-24T02:08:39.620Z,97832.16
2018-03-24T02:11:07.147Z,97818.03
2018-03-24T02:13:35.041Z,97822.20
2018-03-24T02:16:02.555Z,97815.82
2018-03-24T02:18:30.103Z,97812.66
2018-03-24T02:21:03.284Z,97813.14
2018-03-24T02:23:30.939Z,97802.16
2018-03-24T02:25:58.453Z,97808.52
2018-03-24T02:28:26.004Z,97797.55
2018-03-24T02:30:53.525Z,97792.34
2018-03-24T02:33:21.081Z,97795.91
2018-03-24T02:35:48.614Z,97788.00
2018-03-24T02:38:16.164Z,97790.80
2018-03-24T02:40:43.694Z,97786.27
2018-03-24T02:43:11.262Z,97770.01
2018-03-24T02:45:38.808Z,97782.63
2018-03-24T02:48:06.381Z,97770.41
2018-03-24T02:50:33.909Z,97770.20
2018-03-24T02:53:01.547Z,97764.17
2018-03-24T02:55:29.088Z,97756.31
2018-03-24T02:57:56.643Z,97751.70
2018-03-24T03:00:24.164Z,97763.78
2018-03-24T03:02:51.720Z,97757.45
2018-03-24T03:05:19.243Z,97761.58
2018-03-24T03:07:46.902Z,97759.48
2018-03-24T03:10:14.431Z,97761.81
2018-03-24T03:12:41.996Z,97767.18
2018-03-24T03:15:09.580Z,97758.29
2018-03-24T03:17:37.136Z,97767.09
2018-03-24T03:20:05.248Z,97760.40
2018-03-24T03:22:32.808Z,97767.41
2018-03-24T03:25:00.348Z,97758.77
2018-03-24T03:27:27.897Z,97759.17
2018-03-24T03:29:55.445Z,97761.50
2018-03-24T03:32:23.319Z,97755.45
2018-03-24T03:34:50.854Z,97760.05
2018-03-24T03:37:18.379Z,97749.03
2018-03-24T03:39:45.941Z,97756.23
2018-03-24T03:42:13.466Z,97747.31
2018-03-24T03:44:41.035Z,97750.97
2018-03-24T03:47:08.560Z,97749.34
2018-03-24T03:49:36.147Z,97754.34
2018-03-24T03:52:03.786Z,97744.97
2018-03-24T03:54:31.345Z,97746.76
2018-03-24T03:56:58.865Z,97751.94
2018-03-24T03:59:26.451Z,97740.31
2018-03-24T04:01:53.975Z,97739.76
2018-03-24T04:04:21.521Z,97737.87
2018-03-24T04:06:49.051Z,97737.03
2018-03-24T04:09:16.622Z,97737.47
2018-03-24T04:11:44.143Z,97736.51
2018-03-24T04:14:11.710Z,97735.13
2018-03-24T04:16:39.236Z,97745.33
2018-03-24T04:19:06.791Z,97731.23
2018-03-24T04:21:35.368Z,97727.16
2018-03-24T04:24:02.932Z,97734.37
2018-03-24T04:26:30.556Z,97734.37
2018-03-24T04:28:58.052Z,97740.46
2018-03-24T04:31:25.572Z,97735.14
2018-03-24T04:33:53.119Z,97732.89
2018-03-24T04:36:20.634Z,97730.32
2018-03-24T04:38:48.185Z,97723.66
2018-03-24T04:41:15.737Z,97730.34
2018-03-24T04:43:43.293Z,97736.13
2018-03-24T04:46:10.827Z,97730.24
2018-03-24T04:48:38.391Z,97734.57
2018-03-24T04:51:05.922Z,97736.53
2018-03-24T04:53:33.488Z,97743.73
2018-03-24T04:56:01.029Z,97741.22
2018-03-24T04:58:28.601Z,97740.40
2018-03-24T05:00:56.123Z,97733.04
2018-03-24T05:03:23.678Z,97737.41
2018-03-24T05:05:51.214Z,97740.16
2018-03-24T05:08:18.766Z,97728.30
2018-03-24T05:10:46.332Z,97730.98
2018-03-24T05:13:13.848Z,97723.92
2018-03-24T05:15:41.439Z,97741.96
2018-03-24T05:18:08.960Z,97733.82
2018-03-24T05:20:36.519Z,97735.73
2018-03-24T05:23:04.039Z,97734.52
2018-03-24T05:25:31.591Z,97741.61
2018-03-24T05:27:59.102Z,97739.13
2018-03-24T05:30:26.668Z,97736.98
2018-03-24T05:32:54.205Z,97743.24
2018-03-24T05:35:21.759Z,97743.06
2018-03-24T05:37:49.284Z,97737.27
2018-03-24T05:40:16.859Z,97738.33
2018-03-24T05:42:44.374Z,97745.29
2018-03-24T05:45:11.944Z,97748.52
2018-03-24T05:47:39.468Z,97740.14
2018-03-24T05:50:07.025Z,97742.16
2018-03-24T05:52:34.538Z,97742.32
2018-03-24T05:55:02.099Z,97742.81
2018-03-24T05:57:29.627Z,97748.30
2018-03-24T05:59:57.179Z,97745.55
2018-03-24T06:02:24.711Z,97742.58
2018-03-24T06:04:52.269Z,97744.71
2018-03-24T06:07:19.791Z,97747.45
2018-03-24T06:09:47.352Z,97746.25
2018-03-24T06:12:14.869Z,97747.15
2018-03-24T06:14:42.443Z,97744.41
2018-03-24T06:17:09.980Z,97745.10
2018-03-24T06:19:37.531Z,97758.67
2018-03-24T06:22:06.031Z,97759.22
2018-03-24T06:24:33.594Z,97763.61
2018-03-24T06:27:01.136Z,97765.91
2018-03-24T06:29:28.699Z,97755.83
2018-03-24T06:31:58.569Z,97749.48
2018-03-24T06:34:26.137Z,97762.64
2018-03-24T06:36:59.119Z,97751.85
2018-03-24T06:39:26.689Z,97753.55
2018-03-24T06:41:54.207Z,97755.67
2018-03-24T06:44:21.779Z,97754.21
2018-03-24T06:46:49.303Z,97754.80
2018-03-24T06:49:16.860Z,97756.43
2018-03-24T06:51:44.411Z,97760.67
2018-03-24T06:54:11.980Z,97758.58
2018-03-24T06:56:39.536Z,97751.61
2018-03-24T06:59:07.067Z,97768.15
2018-03-24T07:01:34.658Z,97760.20
2018-03-24T07:04:02.183Z,97773.00
2018-03-24T07:06:29.735Z,97772.94
2018-03-24T07:08:57.308Z,97779.19
2018-03-24T07:11:24.863Z,97779.56
2018-03-24T07:13:52.402Z,97778.75
2018-03-24T07:16:19.988Z,97783.34
2018-03-24T07:18:47.625Z,97784.66
2018-03-24T07:21:19.367Z,97793.68
2018-03-24T07:23:47.710Z,97793.95
2018-03-24T07:26:15.343Z,97796.11
2018-03-24T07:28:45.066Z,97794.19
2018-03-24T07:31:12.720Z,97798.40
2018-03-24T07:33:40.240Z,97805.66
2018-03-24T07:36:07.820Z,97805.73
2018-03-24T07:38:36.171Z,97775.44
2018-03-24T07:41:03.724Z,97810.93
2018-03-24T07:43:31.259Z,97806.88
2018-03-24T07:46:01.684Z,97818.73
2018-03-24T07:48:30.968Z,97812.14
2018-03-24T07:50:58.517Z,97815.69
2018-03-24T07:53:26.089Z,97819.58
2018-03-24T07:55:54.132Z,97816.70
2018-03-24T07:58:21.706Z,97819.80
2018-03-24T08:00:49.613Z,97818.89
2018-03-24T08:03:17.192Z,97824.19
2018-03-24T08:05:44.715Z,97819.78
2018-03-24T08:08:13.117Z,97816.67
2018-03-24T08:10:49.295Z,97824.67
2018-03-24T08:13:17.673Z,97835.64
2018-03-24T08:15:45.203Z,97833.41
2018-03-24T08:18:12.784Z,97833.67
2018-03-24T08:20:40.295Z,97830.52
2018-03-24T08:23:07.841Z,97840.82
2018-03-24T08:25:36.330Z,97850.03
2018-03-24T08:28:03.879Z,97844.81
2018-03-24T08:30:31.394Z,97848.45
2018-03-24T08:32:58.964Z,97845.02
2018-03-24T08:35:26.499Z,97842.36
2018-03-24T08:37:54.044Z,97848.52
2018-03-24T08:40:21.578Z,97850.13
2018-03-24T08:42:49.135Z,97857.53
2018-03-24T08:45:17.663Z,97857.96
2018-03-24T08:47:45.223Z,97854.81
2018-03-24T08:50:12.757Z,97853.98
2018-03-24T08:52:41.347Z,97848.41
2018-03-24T08:55:08.993Z,97864.35
2018-03-24T08:57:36.563Z,97853.81
2018-03-24T09:00:04.104Z,97855.22
2018-03-24T09:02:31.675Z,97857.66
2018-03-24T09:04:59.223Z,97855.73
2018-03-24T09:07:26.801Z,97852.71
2018-03-24T09:09:54.328Z,97852.64
2018-03-24T09:12:21.877Z,97854.45
2018-03-24T09:14:52.911Z,97856.44
2018-03-24T09:17:20.718Z,97845.11
2018-03-24T09:19:48.986Z,97841.73
2018-03-24T09:22:16.569Z,97841.77
2018-03-24T09:24:44.077Z,97845.02
2018-03-24T09:27:12.395Z,97849.51
2018-03-24T09:29:40.159Z,97843.68
2018-03-24T09:32:07.716Z,97843.87
2018-03-24T09:34:35.922Z,97852.09
2018-03-24T09:37:06.132Z,97851.67
2018-03-24T09:39:44.704Z,97852.45
2018-03-24T09:42:15.779Z,97850.70
2018-03-24T09:44:54.060Z,97858.45
2018-03-24T09:47:21.872Z,97848.62
2018-03-24T09:49:49.416Z,97846.83
2018-03-24T09:52:17.066Z,97842.54
2018-03-24T09:54:44.603Z,97854.22
2018-03-24T09:57:12.184Z,97851.00
2018-03-24T09:59:39.720Z,97841.19
2018-03-24T10:02:07.268Z,97846.56
2018-03-24T10:04:34.791Z,97845.09
2018-03-24T10:07:02.351Z,97841.06
2018-03-24T10:09:29.878Z,97840.91
2018-03-24T10:11:57.437Z,97836.45
2018-03-24T10:14:24.992Z,97836.23
2018-03-24T10:16:52.520Z,97827.59
2018-03-24T10:19:20.091Z,97821.23
2018-03-24T10:24:46.466Z,97823.10
2018-03-24T10:27:14.308Z,97819.52
2018-03-24T10:29:41.854Z,97831.48
2018-03-24T10:32:09.401Z,97819.00
2018-03-24T10:34:37.246Z,97818.39
2018-03-24T10:37:04.845Z,97808.36
2018-03-24T10:39:32.415Z,97814.30
2018-03-24T10:41:59.939Z,97805.96
2018-03-24T10:44:27.486Z,97810.73
2018-03-24T10:46:55.028Z,97819.02
2018-03-24T10:49:22.674Z,97811.16
2018-03-24T10:51:50.216Z,97810.81
2018-03-24T10:54:17.778Z,97813.41
2018-03-24T10:56:45.311Z,97811.59
2018-03-24T10:59:12.874Z,97814.22
2018-03-24T11:01:40.442Z,97814.60
2018-03-24T11:04:08.016Z,97819.30
2018-03-24T11:06:35.547Z,97823.48
2018-03-24T11:09:03.100Z,97822.75
2018-03-24T11:11:30.624Z,97826.11
2018-03-24T11:13:58.184Z,97817.59
2018-03-24T11:16:25.903Z,97818.45
2018-03-24T11:18:54.065Z,97814.31
2018-03-24T11:21:22.066Z,97813.50
2018-03-24T11:23:51.517Z,97809.20
2018-03-24T11:26:19.080Z,97814.75
2018-03-24T11:28:46.677Z,97806.92
2018-03-24T11:31:14.214Z,97807.13
2018-03-24T11:33:41.788Z,97812.30
2018-03-24T11:36:09.320Z,97806.64
2018-03-24T11:38:37.083Z,97810.67
2018-03-24T11:41:04.619Z,97806.94
2018-03-24T11:43:32.143Z,97806.30
2018-03-24T11:45:59.697Z,97796.23
2018-03-24T11:48:27.221Z,97794.66
2018-03-24T11:50:57.290Z,97791.08
2018-03-24T11:53:36.865Z,97785.14
2018-03-24T11:56:08.072Z,97783.07
2018-03-24T11:58:35.763Z,97786.72
2018-03-24T12:01:03.316Z,97786.41
2018-03-24T12:03:30.852Z,97775.95
2018-03-24T12:05:58.535Z,97795.73
2018-03-24T12:08:26.056Z,97787.99
2018-03-24T12:10:53.622Z,97785.22
2018-03-24T12:13:21.151Z,97786.86
2018-03-24T12:15:48.713Z,97785.77
2018-03-24T12:18:16.405Z,97786.32
2018-03-24T12:20:44.245Z,97787.77
2018-03-24T12:23:13.470Z,97788.13
2018-03-24T12:25:41.388Z,97786.87
2018-03-24T12:28:09.461Z,97788.22
2018-03-24T12:30:37.762Z,97785.19
2018-03-24T12:33:05.822Z,97780.95
2018-03-24T12:35:34.490Z,97781.61
2018-03-24T12:38:02.470Z,97775.30
2018-03-24T12:40:31.291Z,97775.43
2018-03-24T12:43:02.156Z,97775.16
2018-03-24T12:45:29.735Z,97773.83
2018-03-24T12:47:57.497Z,97775.78
2018-03-24T12:50:25.057Z,97768.31
2018-03-24T12:52:52.615Z,97768.98
2018-03-24T12:55:20.331Z,97767.66
2018-03-24T12:57:47.868Z,97757.81
2018-03-24T13:00:15.435Z,97756.33
2018-03-24T13:02:43.076Z,97763.22
2018-03-24T13:05:10.695Z,97769.10
2018-03-24T13:07:38.248Z,97761.09
2018-03-24T13:10:05.962Z,97756.25
2018-03-24T13:12:33.556Z,97762.13
2018-03-24T13:15:01.127Z,97762.52
2018-03-24T13:17:28.729Z,97765.59
2018-03-24T13:19:56.276Z,97759.50
2018-03-24T13:22:23.829Z,97771.44
2018-03-24T13:24:51.403Z,97770.30
2018-03-24T13:27:18.963Z,97766.19
2018-03-24T13:29:46.991Z,97779.08
2018-03-24T13:32:14.603Z,97761.21
2018-03-24T13:34:42.527Z,97768.08
2018-03-24T13:37:13.495Z,97765.78
2018-03-24T13:39:41.257Z,97764.33
2018-03-24T13:42:08.824Z,97764.73
2018-03-24T13:44:36.351Z,97759.77
2018-03-24T13:47:03.913Z,97759.01
2018-03-24T13:49:32.098Z,97764.24
2018-03-24T13:51:59.789Z,97758.94
2018-03-24T13:54:27.315Z,97762.20
2018-03-24T13:56:55.413Z,97764.39
2018-03-24T13:59:23.323Z,97765.59
2018-03-24T14:01:50.945Z,97764.69
2018-03-24T14:04:18.471Z,97752.63
2018-03-24T14:06:46.054Z,97753.15
2018-03-24T14:09:15.452Z,97751.54
2018-03-24T14:11:43.167Z,97755.23
2018-03-24T14:14:12.335Z,97744.87
2018-03-24T14:16:39.925Z,97752.41
2018-03-24T14:19:07.851Z,97741.22
2018-03-24T14:21:36.006Z,97744.27
2018-03-24T14:24:03.627Z,97741.59
2018-03-24T14:26:31.183Z,97750.28
2018-03-24T14:28:58.726Z,97747.23
2018-03-24T14:31:31.066Z,97747.48
2018-03-24T14:33:58.668Z,97748.15
2018-03-24T14:36:26.313Z,97740.17
2018-03-24T14:38:55.317Z,97750.91
2018-03-24T14:41:22.963Z,97748.81
2018-03-24T14:43:50.564Z,97750.76
2018-03-24T14:46:18.135Z,97743.46
2018-03-24T14:48:45.707Z,97734.38
2018-03-24T14:51:13.426Z,97746.55
2018-03-24T14:53:40.974Z,97744.02
2018-03-24T14:56:08.528Z,97740.31
2018-03-24T14:58:36.051Z,97742.14
2018-03-24T15:01:03.616Z,97753.34
2018-03-24T15:03:31.160Z,97745.25
2018-03-24T15:05:58.757Z,97748.14
2018-03-24T15:08:26.311Z,97743.02
2018-03-24T15:10:54.011Z,97741.70
2018-03-24T15:13:21.545Z,97743.78
2018-03-24T15:15:49.115Z,97744.71
2018-03-24T15:18:16.938Z,97745.23
2018-03-24T15:20:44.523Z,97751.49
2018-03-24T15:23:12.195Z,97741.57
2018-03-24T15:25:39.879Z,97746.41
2018-03-24T15:28:07.499Z,97754.83
2018-03-24T15:30:46.881Z,97749.83
2018-03-24T15:33:26.125Z,97752.95
2018-03-24T15:36:05.752Z,97758.38
2018-03-24T15:38:33.267Z,97749.55
2018-03-24T15:41:00.841Z,97756.98
2018-03-24T15:43:28.407Z,97749.31
2018-03-24T15:45:56.023Z,97745.42
2018-03-24T15:48:23.577Z,97750.00
2018-03-24T15:50:51.588Z,97750.84
2018-03-24T15:53:19.304Z,97747.52
2018-03-24T15:55:46.863Z,97745.45
2018-03-24T15:58:14.428Z,97748.51
2018-03-24T16:00:41.960Z,97751.36
2018-03-24T16:03:09.937Z,97760.06
2018-03-24T16:05:37.515Z,97754.13
2018-03-24T16:08:05.331Z,97757.44
2018-03-24T16:10:32.888Z,97761.48
2018-03-24T16:13:00.471Z,97767.77
2018-03-24T16:15:27.988Z,97769.24
2018-03-24T16:17:57.348Z,97774.59
2018-03-24T16:20:25.582Z,97765.89
2018-03-24T16:22:53.148Z,97765.48
2018-03-24T16:25:20.898Z,97764.59
2018-03-24T16:27:48.463Z,97765.40
2018-03-24T16:30:15.985Z,97772.11
2018-03-24T16:32:43.692Z,97753.08
2018-03-24T16:35:11.216Z,97772.92
2018-03-24T16:37:38.770Z,97774.11
2018-03-24T16:40:06.313Z,97775.56
2018-03-24T16:42:33.891Z,97778.17
2018-03-24T16:45:01.423Z,97781.52
2018-03-24T16:47:28.976Z,97788.77
2018-03-24T16:49:56.504Z,97791.48
2018-03-24T16:52:24.083Z,97790.50
2018-03-24T16:54:51.610Z,97790.70
2018-03-24T16:57:19.134Z,97795.62
2018-03-24T16:59:46.716Z,97790.97
2018-03-24T17:02:15.164Z,97795.20
2018-03-24T17:04:42.728Z,97798.42
2018-03-24T17:07:10.272Z,97798.36
2018-03-24T17:09:37.836Z,97803.76
2018-03-24T17:12:05.371Z,97800.13
2018-03-24T17:14:32.932Z,97803.06
2018-03-24T17:17:00.448Z,97814.64
2018-03-24T17:19:28.032Z,97809.73
2018-03-24T17:21:55.555Z,97821.13
2018-03-24T17:24:23.133Z,97826.56
2018-03-24T17:26:53.001Z,97840.45
2018-03-24T17:29:23.136Z,97841.19
2018-03-24T17:31:52.070Z,97837.94
2018-03-24T17:34:21.239Z,97826.59
2018-03-24T17:36:49.796Z,97840.56
2018-03-24T17:39:17.360Z,97841.58
2018-03-24T17:41:47.380Z,97849.05
2018-03-24T17:44:15.968Z,97848.22
2018-03-24T17:46:46.180Z,97849.05
2018-03-24T17:49:15.760Z,97854.52
2018-03-24T17:51:43.284Z,97854.46
2018-03-24T17:54:13.482Z,97849.79
2018-03-24T17:56:41.779Z,97852.98
2018-03-24T17:59:10.665Z,97854.98
2018-03-24T18:01:40.620Z,97862.46
2018-03-24T18:04:08.287Z,97864.91
2018-03-24T18:06:39.994Z,97871.93
2018-03-24T18:09:08.076Z,97871.31
2018-03-24T18:11:35.631Z,97886.01
2018-03-24T18:14:07.548Z,97884.39
2018-03-24T18:16:38.582Z,97887.56
2018-03-24T18:19:11.922Z,97890.97
2018-03-24T18:21:42.341Z,97901.47
2018-03-24T18:24:10.557Z,97900.90
2018-03-24T18:26:42.662Z,97897.88
2018-03-24T18:29:11.038Z,97897.84
2018-03-24T18:31:40.412Z,97891.90
2018-03-24T18:34:11.141Z,97893.14
2018-03-24T18:36:39.376Z,97895.89
2018-03-24T18:39:11.615Z,97904.37
2018-03-24T18:41:41.706Z,97903.13
2018-03-24T18:44:10.047Z,97903.98
2018-03-24T18:46:38.627Z,97904.77
2018-03-24T18:49:06.192Z,97914.05
2018-03-24T18:51:36.951Z,97916.22
2018-03-24T18:54:07.971Z,97915.89
2018-03-24T18:56:35.719Z,97919.04
2018-03-24T18:59:07.178Z,97916.88
2018-03-24T19:01:35.427Z,97916.20
2018-03-24T19:04:05.975Z,97920.90
2018-03-24T19:06:34.342Z,97917.20
2018-03-24T19:09:03.706Z,97931.09
2018-03-24T19:11:32.445Z,97922.05
2018-03-24T19:14:01.594Z,97931.16
2018-03-24T19:16:29.206Z,97933.64
2018-03-24T19:19:00.671Z,97942.03
2018-03-24T19:21:31.199Z,97940.00
2018-03-24T19:24:01.064Z,97944.59
2018-03-24T19:26:31.797Z,97936.78
2018-03-24T19:28:59.597Z,97943.54
2018-03-24T19:31:28.953Z,97943.59
2018-03-24T19:34:02.165Z,97944.03
2018-03-24T19:36:30.927Z,97946.05
2018-03-24T19:38:59.557Z,97959.12
2018-03-24T19:41:27.102Z,97950.72
2018-03-24T19:43:54.639Z,97951.70
2018-03-24T19:46:24.362Z,97960.88
2018-03-24T19:48:51.893Z,97950.75
2018-03-24T19:51:19.444Z,97964.45
2018-03-24T19:53:46.964Z,97959.30
2018-03-24T19:56:14.535Z,97952.20
2018-03-24T19:58:42.051Z,97967.09
2018-03-24T20:01:09.609Z,97960.22
2018-03-24T20:03:37.370Z,97970.08
2018-03-24T20:06:06.204Z,97959.85
2018-03-24T20:08:33.737Z,97962.36
2018-03-24T20:11:01.448Z,97962.74
2018-03-24T20:13:29.362Z,97961.25
2018-03-24T20:15:57.152Z,97963.31
2018-03-24T20:18:25.722Z,97965.23
2018-03-24T20:20:53.435Z,97970.73
2018-03-24T20:23:22.716Z,97927.67
2018-03-24T20:25:50.275Z,97968.95
2018-03-24T20:28:17.792Z,97976.13
2018-03-24T20:30:45.352Z,97976.95
2018-03-24T20:33:12.904Z,97986.47
2018-03-24T20:35:40.451Z,97983.38
2018-03-24T20:38:11.276Z,97991.99
2018-03-24T20:40:39.016Z,97989.77
2018-03-24T20:43:06.565Z,97988.56
2018-03-24T20:45:34.170Z,97994.65
2018-03-24T20:48:04.437Z,97998.02
2018-03-24T20:50:32.197Z,97999.44
2018-03-24T20:52:59.733Z,98002.36
2018-03-24T20:55:27.399Z,98000.30
2018-03-24T20:57:57.282Z,97995.48
2018-03-24T21:00:25.079Z,98005.42
2018-03-24T21:02:52.611Z,98010.73
2018-03-24T21:05:20.186Z,98013.13
2018-03-24T21:07:47.763Z,98009.55
2018-03-24T21:10:31.004Z,98015.68
2018-03-24T21:13:01.268Z,98016.80
2018-03-24T21:15:30.862Z,98018.67
2018-03-24T21:18:13.778Z,98029.06
2018-03-24T21:20:41.333Z,98025.66
2018-03-24T21:23:08.901Z,98025.22
2018-03-24T21:25:36.449Z,98030.05
2018-03-24T21:28:03.985Z,98025.53
2018-03-24T21:30:31.559Z,98032.14
2018-03-24T21:32:59.283Z,98028.73
2018-03-24T21:35:26.842Z,98034.28
2018-03-24T21:37:54.408Z,98038.36
2018-03-24T21:40:21.964Z,98041.26
2018-03-24T21:42:49.499Z,98040.88
2018-03-24T21:45:17.192Z,98046.62
2018-03-24T21:47:44.759Z,98039.52
2018-03-24T21:50:12.347Z,98032.55
2018-03-24T21:52:40.067Z,98038.91
2018-03-24T21:55:07.906Z,98039.81
2018-03-24T21:57:36.103Z,98029.56
2018-03-24T22:00:03.688Z,98028.66
2018-03-24T22:02:31.251Z,98042.88
2018-03-24T22:04:59.797Z,98035.20
2018-03-24T22:07:27.352Z,98039.88
2018-03-24T22:09:55.230Z,98036.41
2018-03-24T22:12:24.632Z,98041.64
2018-03-24T22:14:52.803Z,98030.17
2018-03-24T22:17:22.531Z,98031.21
2018-03-24T22:19:51.702Z,98025.83
2018-03-24T22:22:19.582Z,98029.73
2018-03-24T22:24:47.106Z,98034.52
2018-03-24T22:27:14.965Z,98029.28
2018-03-24T22:29:42.486Z,98021.84
2018-03-24T22:32:10.037Z,98033.74
2018-03-24T22:34:37.571Z,98026.59
2018-03-24T22:37:07.905Z,98026.52
2018-03-24T22:39:38.591Z,98030.92
2018-03-24T22:42:07.149Z,98035.95
2018-03-24T22:44:35.409Z,98026.52
2018-03-24T22:47:03.169Z,98028.88
2018-03-24T22:49:30.956Z,98027.34
2018-03-24T22:51:59.334Z,98031.08
2018-03-24T22:54:27.933Z,98038.73
2018-03-24T22:56:55.743Z,98034.63
2018-03-24T22:59:23.480Z,98036.78
2018-03-24T23:01:51.048Z,98039.70
2018-03-24T23:04:18.628Z,98037.18
2018-03-24T23:06:46.446Z,98038.97
2018-03-24T23:09:14.767Z,98036.85
2018-03-24T23:11:42.324Z,98034.42
2018-03-24T23:14:10.029Z,98034.27
2018-03-24T23:16:38.416Z,98039.19
2018-03-24T23:19:05.938Z,98035.14
2018-03-24T23:21:33.690Z,98035.47
2018-03-24T23:24:01.778Z,98034.63
2018-03-24T23:26:29.412Z,98040.34
2018-03-24T23:28:57.084Z,98032.72
2018-03-24T23:31:24.673Z,98036.50
2018-03-24T23:33:52.279Z,98040.20
2018-03-24T23:36:20.798Z,98040.63
2018-03-24T23:38:48.520Z,98043.94
2018-03-24T23:41:16.358Z,98049.79
2018-03-24T23:43:43.921Z,98044.59
2018-03-24T23:46:12.864Z,98039.23
2018-03-24T23:48:40.963Z,98033.48
2018-03-24T23:51:09.915Z,98040.70
2018-03-24T23:53:38.395Z,98040.86
2018-03-24T23:56:07.024Z,98040.99
2018-03-24T23:58:35.512Z,98042.14
